Time;durP1;ratioP1;P1;durP2;ratioP2;P2;SDS_P1;SDS_P2;PMS_P1;PMS_P2;Temp;Humidity;BMP_temperature;BMP_pressure;BME280_temperature;BME280_humidity;BME280_pressure;Samples;Min_cycle;Max_cycle;Signal;HPM_P1;HPM_P2
2024/01/12 00:02:18;;;;;;;23.05;9.15;;;;;;;;;;4980321;28;20056;-58
2024/01/12 00:04:45;;;;;;;22.30;9.00;;;;;;;;;;4996004;28;20124;-56
2024/01/12 00:07:12;;;;;;;31.35;8.93;;;;;;;;;;5012690;28;20046;-58
2024/01/12 00:09:39;;;;;;;23.88;7.32;;;;;;;;;;4994379;28;20124;-57
2024/01/12 00:12:07;;;;;;;23.73;8.50;;;;;;;;;;4995763;28;20054;-58
2024/01/12 00:14:37;;;;;;;27.92;9.65;;;;;;;;;;4989169;28;20121;-56
2024/01/12 00:17:04;;;;;;;22.98;8.63;;;;;;;;;;4980710;28;20081;-57
2024/01/12 00:19:31;;;;;;;28.77;9.18;;;;;;;;;;4984798;28;20054;-58
2024/01/12 00:21:57;;;;;;;25.40;9.13;;;;;;;;;;4980134;28;20136;-56
2024/01/12 00:24:24;;;;;;;26.92;9.25;;;;;;;;;;4996507;28;20060;-58
2024/01/12 00:26:51;;;;;;;23.40;8.27;;;;;;;;;;4995047;28;20053;-57
2024/01/12 00:29:19;;;;;;;25.90;8.75;;;;;;;;;;5001436;28;20081;-56
2024/01/12 00:31:46;;;;;;;20.23;7.75;;;;;;;;;;4992894;28;20056;-57
2024/01/12 00:34:13;;;;;;;27.83;9.77;;;;;;;;;;4986208;28;20134;-55
2024/01/12 00:36:40;;;;;;;25.77;9.05;;;;;;;;;;5005611;28;20082;-58
2024/01/12 00:39:07;;;;;;;25.60;8.52;;;;;;;;;;4998835;28;20056;-54
2024/01/12 00:41:34;;;;;;;22.17;8.32;;;;;;;;;;4999463;28;20042;-58
2024/01/12 00:44:01;;;;;;;22.35;8.30;;;;;;;;;;4985692;28;20048;-58
2024/01/12 00:46:29;;;;;;;20.25;8.13;;;;;;;;;;4996775;28;20052;-58
2024/01/12 00:48:56;;;;;;;23.88;8.40;;;;;;;;;;4996526;28;20060;-58
2024/01/12 00:51:23;;;;;;;23.02;9.07;;;;;;;;;;4993790;28;20069;-59
2024/01/12 00:53:50;;;;;;;27.15;9.75;;;;;;;;;;4996778;28;20050;-57
2024/01/12 00:56:17;;;;;;;55.92;18.67;;;;;;;;;;4997720;28;20049;-57
2024/01/12 00:58:44;;;;;;;24.30;9.65;;;;;;;;;;4995655;28;20052;-57
2024/01/12 01:01:11;;;;;;;22.75;9.07;;;;;;;;;;5004696;28;20135;-56
2024/01/12 01:03:39;;;;;;;25.42;9.18;;;;;;;;;;4998036;28;20089;-58
2024/01/12 01:06:06;;;;;;;30.05;9.55;;;;;;;;;;4990878;28;20045;-55
2024/01/12 01:08:33;;;;;;;26.38;8.85;;;;;;;;;;4999479;28;20054;-58
2024/01/12 01:11:00;;;;;;;24.23;8.45;;;;;;;;;;4997339;28;20196;-57
2024/01/12 01:13:26;;;;;;;20.40;8.63;;;;;;;;;;4998436;28;20066;-59
2024/01/12 01:15:53;;;;;;;25.92;9.75;;;;;;;;;;4998308;28;20068;-57
2024/01/12 01:18:19;;;;;;;23.45;8.85;;;;;;;;;;4995335;28;20401;-57
2024/01/12 01:20:48;;;;;;;23.45;8.40;;;;;;;;;;4992646;28;20057;-57
2024/01/12 01:23:14;;;;;;;23.63;9.38;;;;;;;;;;4993149;28;20054;-55
2024/01/12 01:25:41;;;;;;;23.50;8.52;;;;;;;;;;5002124;28;20046;-56
2024/01/12 01:28:08;;;;;;;23.65;8.48;;;;;;;;;;4998552;28;20065;-58
2024/01/12 01:30:34;;;;;;;22.13;8.57;;;;;;;;;;5003438;28;20122;-58
2024/01/12 01:33:01;;;;;;;23.23;9.50;;;;;;;;;;4976350;28;20181;-58
2024/01/12 01:35:27;;;;;;;24.15;8.80;;;;;;;;;;4990520;28;20221;-58
2024/01/12 01:37:55;;;;;;;19.45;7.57;;;;;;;;;;5002235;28;20061;-58
2024/01/12 01:40:22;;;;;;;18.45;7.88;;;;;;;;;;4997135;28;20046;-57
2024/01/12 01:42:49;;;;;;;21.25;7.20;;;;;;;;;;4993643;28;20060;-55
2024/01/12 01:45:16;;;;;;;20.25;7.50;;;;;;;;;;4990180;28;20046;-58
2024/01/12 01:47:44;;;;;;;24.30;8.43;;;;;;;;;;4999200;28;20073;-58
2024/01/12 01:50:13;;;;;;;20.00;8.07;;;;;;;;;;5001571;28;20204;-60
2024/01/12 01:52:40;;;;;;;26.60;8.18;;;;;;;;;;4990027;28;20163;-58
2024/01/12 01:55:10;;;;;;;18.45;6.38;;;;;;;;;;5005848;28;20184;-61
2024/01/12 01:57:39;;;;;;;22.92;6.50;;;;;;;;;;4991211;28;20061;-59
2024/01/12 02:00:06;;;;;;;18.23;6.93;;;;;;;;;;4997612;28;20134;-59
2024/01/12 02:02:34;;;;;;;17.50;6.78;;;;;;;;;;4994211;28;20085;-59
2024/01/12 02:05:02;;;;;;;19.40;7.07;;;;;;;;;;4994456;28;20060;-59
2024/01/12 02:07:30;;;;;;;23.13;7.40;;;;;;;;;;5000333;28;20046;-58
2024/01/12 02:09:58;;;;;;;21.60;7.88;;;;;;;;;;4994512;28;20077;-59
2024/01/12 02:12:26;;;;;;;18.75;6.85;;;;;;;;;;4998525;28;20057;-59
2024/01/12 02:14:56;;;;;;;18.98;7.93;;;;;;;;;;4989887;28;20066;-59
2024/01/12 02:17:23;;;;;;;19.40;7.32;;;;;;;;;;4994708;28;20189;-59
2024/01/12 02:19:49;;;;;;;22.98;6.85;;;;;;;;;;4988372;28;20049;-60
2024/01/12 02:22:21;;;;;;;18.30;6.72;;;;;;;;;;4991817;28;20123;-60
2024/01/12 02:24:47;;;;;;;22.83;7.32;;;;;;;;;;5000971;28;20046;-56
2024/01/12 02:27:14;;;;;;;17.95;6.95;;;;;;;;;;4997259;28;20062;-58
2024/01/12 02:29:41;;;;;;;19.98;7.85;;;;;;;;;;4998073;28;20061;-57
2024/01/12 02:32:08;;;;;;;25.38;7.22;;;;;;;;;;4998134;28;20041;-57
2024/01/12 02:34:34;;;;;;;22.00;7.75;;;;;;;;;;4972517;28;20069;-58
2024/01/12 02:37:01;;;;;;;19.83;6.65;;;;;;;;;;4976891;28;20050;-58
2024/01/12 02:39:29;;;;;;;18.92;7.68;;;;;;;;;;4978321;28;20042;-57
2024/01/12 02:41:57;;;;;;;20.27;6.85;;;;;;;;;;4976734;28;20050;-58
2024/01/12 02:44:24;;;;;;;23.33;7.57;;;;;;;;;;4968828;28;20050;-58
2024/01/12 02:46:50;;;;;;;20.63;6.82;;;;;;;;;;4987957;28;20122;-58
2024/01/12 02:49:17;;;;;;;15.85;6.72;;;;;;;;;;4976886;28;20051;-58
2024/01/12 02:51:44;;;;;;;23.23;7.88;;;;;;;;;;4980674;28;20171;-58
2024/01/12 02:54:10;;;;;;;22.85;7.00;;;;;;;;;;4993353;28;20081;-57
2024/01/12 02:56:38;;;;;;;18.60;7.45;;;;;;;;;;4995193;28;20066;-58
2024/01/12 02:59:05;;;;;;;18.55;6.78;;;;;;;;;;4992792;28;20141;-57
2024/01/12 03:01:34;;;;;;;17.20;6.35;;;;;;;;;;5012193;28;20042;-58
2024/01/12 03:04:01;;;;;;;18.23;5.60;;;;;;;;;;4980930;28;20111;-58
2024/01/12 03:06:27;;;;;;;20.65;6.47;;;;;;;;;;5000429;28;20112;-58
2024/01/12 03:08:54;;;;;;;22.90;7.28;;;;;;;;;;4999044;28;20112;-58
2024/01/12 03:11:20;;;;;;;20.27;7.68;;;;;;;;;;4999627;28;20104;-58
2024/01/12 03:13:50;;;;;;;22.33;7.22;;;;;;;;;;4991561;28;20046;-58
2024/01/12 03:16:20;;;;;;;17.65;6.35;;;;;;;;;;4992148;28;20076;-58
2024/01/12 03:18:48;;;;;;;23.55;7.45;;;;;;;;;;4994959;28;20057;-58
2024/01/12 03:21:15;;;;;;;15.32;6.20;;;;;;;;;;5000259;28;20174;-57
2024/01/12 03:23:41;;;;;;;22.35;6.78;;;;;;;;;;4984384;28;20126;-58
2024/01/12 03:26:08;;;;;;;20.35;7.30;;;;;;;;;;4988416;28;20042;-58
2024/01/12 03:28:35;;;;;;;18.77;6.65;;;;;;;;;;4984644;28;20057;-58
2024/01/12 03:31:04;;;;;;;15.52;6.15;;;;;;;;;;4979156;28;20129;-58
2024/01/12 03:33:31;;;;;;;15.98;5.88;;;;;;;;;;4979676;28;20070;-58
2024/01/12 03:35:58;;;;;;;19.38;6.38;;;;;;;;;;4976339;28;20082;-58
2024/01/12 03:38:25;;;;;;;16.75;5.90;;;;;;;;;;4997417;28;20065;-58
2024/01/12 03:40:51;;;;;;;22.45;6.60;;;;;;;;;;4972225;28;20116;-58
2024/01/12 03:43:18;;;;;;;17.77;6.82;;;;;;;;;;4981625;28;20043;-58
2024/01/12 03:45:45;;;;;;;19.15;7.10;;;;;;;;;;4961776;28;20141;-58
2024/01/12 03:48:13;;;;;;;14.52;4.13;;;;;;;;;;4958468;28;20090;-57
2024/01/12 03:50:39;;;;;;;13.95;4.63;;;;;;;;;;4987606;28;20129;-58
2024/01/12 03:53:06;;;;;;;18.58;5.57;;;;;;;;;;4973614;28;20062;-58
2024/01/12 03:55:33;;;;;;;18.35;5.70;;;;;;;;;;4983696;28;20180;-58
2024/01/12 03:58:00;;;;;;;13.57;5.38;;;;;;;;;;5005814;28;20046;-58
2024/01/12 04:00:26;;;;;;;16.65;6.88;;;;;;;;;;5020174;28;20144;-58
2024/01/12 04:02:53;;;;;;;14.80;5.53;;;;;;;;;;5004093;28;20053;-58
2024/01/12 04:05:21;;;;;;;18.02;7.20;;;;;;;;;;4994562;28;20085;-58
2024/01/12 04:07:48;;;;;;;19.55;5.80;;;;;;;;;;4987507;28;20106;-58
2024/01/12 04:10:15;;;;;;;13.15;5.10;;;;;;;;;;5000987;28;20058;-58
2024/01/12 04:12:42;;;;;;;18.80;5.35;;;;;;;;;;5001067;28;20160;-58
2024/01/12 04:15:09;;;;;;;17.20;5.55;;;;;;;;;;4974744;28;20077;-58
2024/01/12 04:17:36;;;;;;;18.42;5.57;;;;;;;;;;5004398;28;20065;-58
2024/01/12 04:20:03;;;;;;;21.25;6.03;;;;;;;;;;4964968;28;20174;-59
2024/01/12 04:22:32;;;;;;;18.80;5.70;;;;;;;;;;4977065;28;20077;-59
2024/01/12 04:24:58;;;;;;;15.45;5.18;;;;;;;;;;4986189;28;20128;-58
2024/01/12 04:27:26;;;;;;;13.32;5.25;;;;;;;;;;4996549;28;20084;-58
2024/01/12 04:29:53;;;;;;;13.17;5.27;;;;;;;;;;4998991;28;20221;-59
2024/01/12 04:32:19;;;;;;;21.20;5.93;;;;;;;;;;5006828;28;20315;-58
2024/01/12 04:34:49;;;;;;;15.55;4.70;;;;;;;;;;4991959;28;20049;-60
2024/01/12 04:37:16;;;;;;;10.82;3.97;;;;;;;;;;4996356;28;20077;-58
2024/01/12 04:39:44;;;;;;;14.88;4.55;;;;;;;;;;4993782;28;20058;-58
2024/01/12 04:42:11;;;;;;;;;;;;;;;;;;4998705;28;20060;-58
2024/01/12 04:44:38;;;;;;;14.45;4.72;;;;;;;;;;4971744;28;20026;-58
2024/01/12 04:47:07;;;;;;;17.02;5.55;;;;;;;;;;4981766;28;20136;-58
2024/01/12 04:49:33;;;;;;;12.82;4.65;;;;;;;;;;4973929;28;20070;-58
2024/01/12 04:52:00;;;;;;;13.57;5.20;;;;;;;;;;4999599;28;20042;-58
2024/01/12 04:54:26;;;;;;;16.52;4.90;;;;;;;;;;4982717;28;20077;-58
2024/01/12 04:56:54;;;;;;;12.85;4.03;;;;;;;;;;5000083;28;20050;-59
2024/01/12 04:59:21;;;;;;;16.35;4.07;;;;;;;;;;4999753;28;20050;-58
2024/01/12 05:01:48;;;;;;;10.15;3.58;;;;;;;;;;4994184;28;20089;-58
2024/01/12 05:04:14;;;;;;;14.35;4.38;;;;;;;;;;4978352;28;20152;-58
2024/01/12 05:06:41;;;;;;;17.05;4.90;;;;;;;;;;4983322;28;20070;-58
2024/01/12 05:09:08;;;;;;;17.05;4.93;;;;;;;;;;4982305;28;20042;-58
2024/01/12 05:11:34;;;;;;;18.67;5.10;;;;;;;;;;4973295;28;20057;-59
2024/01/12 05:14:03;;;;;;;11.68;4.10;;;;;;;;;;4975611;28;20061;-58
2024/01/12 05:16:30;;;;;;;;;;;;;;;;;;5004047;28;20113;-58
2024/01/12 05:18:56;;;;;;;10.68;2.85;;;;;;;;;;5002461;28;20057;-59
2024/01/12 05:21:23;;;;;;;17.38;4.50;;;;;;;;;;4998173;28;20134;-58
2024/01/12 05:23:50;;;;;;;12.25;4.30;;;;;;;;;;4995613;28;20152;-58
2024/01/12 05:26:16;;;;;;;15.00;4.32;;;;;;;;;;4996699;28;20054;-59
2024/01/12 05:28:43;;;;;;;16.73;5.40;;;;;;;;;;5000971;28;20050;-59
2024/01/12 05:31:11;;;;;;;14.55;4.25;;;;;;;;;;4991894;28;20054;-59
2024/01/12 05:33:38;;;;;;;16.05;4.45;;;;;;;;;;4985846;28;20081;-59
2024/01/12 05:36:05;;;;;;;17.08;5.20;;;;;;;;;;4972730;28;20129;-59
2024/01/12 05:38:32;;;;;;;15.32;4.63;;;;;;;;;;4977488;28;20054;-59
2024/01/12 05:40:58;;;;;;;10.30;4.05;;;;;;;;;;4982426;28;20259;-59
2024/01/12 05:43:26;;;;;;;12.25;3.83;;;;;;;;;;4975254;28;20046;-61
2024/01/12 05:45:53;;;;;;;9.43;4.13;;;;;;;;;;4978431;28;20081;-60
2024/01/12 05:48:21;;;;;;;11.20;4.57;;;;;;;;;;4982455;28;20058;-59
2024/01/12 05:50:48;;;;;;;13.48;4.47;;;;;;;;;;4980760;28;20077;-59
2024/01/12 05:53:14;;;;;;;11.73;4.32;;;;;;;;;;4983021;28;20085;-59
2024/01/12 05:55:41;;;;;;;14.82;4.82;;;;;;;;;;4976369;28;20046;-59
2024/01/12 05:58:08;;;;;;;9.85;3.78;;;;;;;;;;4991458;28;20065;-59
2024/01/12 06:00:34;;;;;;;14.18;4.18;;;;;;;;;;4993331;28;20054;-59
2024/01/12 06:03:01;;;;;;;11.65;3.85;;;;;;;;;;4986049;28;20184;-60
2024/01/12 06:05:29;;;;;;;17.10;4.05;;;;;;;;;;4975659;28;20135;-60
2024/01/12 06:07:56;;;;;;;8.48;3.15;;;;;;;;;;4966363;28;20041;-59
2024/01/12 06:10:22;;;;;;;10.32;3.95;;;;;;;;;;4990205;28;20057;-60
2024/01/12 06:12:49;;;;;;;11.70;4.00;;;;;;;;;;4980747;28;20130;-59
2024/01/12 06:15:15;;;;;;;16.63;4.22;;;;;;;;;;4977147;28;20058;-60
2024/01/12 06:17:42;;;;;;;12.15;4.97;;;;;;;;;;4974004;28;20050;-59
2024/01/12 06:20:10;;;;;;;11.38;4.07;;;;;;;;;;4973861;28;20054;-60
2024/01/12 06:22:38;;;;;;;16.20;4.80;;;;;;;;;;4978823;28;20113;-59
2024/01/12 06:25:06;;;;;;;14.68;4.93;;;;;;;;;;4987104;28;20061;-60
2024/01/12 06:27:32;;;;;;;12.93;4.10;;;;;;;;;;4975210;28;20061;-59
2024/01/12 06:29:59;;;;;;;10.95;3.97;;;;;;;;;;5007103;28;20085;-59
2024/01/12 06:32:26;;;;;;;19.80;5.00;;;;;;;;;;4979656;28;20046;-59
2024/01/12 06:34:52;;;;;;;11.60;4.30;;;;;;;;;;4986518;28;20112;-59
2024/01/12 06:37:19;;;;;;;15.10;4.60;;;;;;;;;;4998260;28;20057;-59
2024/01/12 06:39:49;;;;;;;17.67;4.60;;;;;;;;;;4996737;28;20093;-60
2024/01/12 06:42:16;;;;;;;13.88;4.25;;;;;;;;;;4995040;28;20085;-60
2024/01/12 06:44:42;;;;;;;12.13;4.32;;;;;;;;;;4968096;28;20406;-59
2024/01/12 06:47:09;;;;;;;15.68;4.55;;;;;;;;;;4977392;28;20046;-61
2024/01/12 06:49:36;;;;;;;12.52;4.40;;;;;;;;;;4982774;28;20061;-60
2024/01/12 06:52:02;;;;;;;11.32;3.63;;;;;;;;;;4965265;28;20058;-60
2024/01/12 06:54:29;;;;;;;11.40;4.00;;;;;;;;;;4966558;28;20093;-59
2024/01/12 06:56:58;;;;;;;14.82;3.58;;;;;;;;;;4991736;28;20060;-60
2024/01/12 06:59:25;;;;;;;8.45;3.08;;;;;;;;;;4981231;28;20050;-60
2024/01/12 07:01:52;;;;;;;9.70;3.97;;;;;;;;;;4977422;28;20235;-59
2024/01/12 07:04:19;;;;;;;14.73;4.63;;;;;;;;;;4958939;28;20067;-60
2024/01/12 07:06:48;;;;;;;10.70;4.43;;;;;;;;;;4974908;28;20086;-60
2024/01/12 07:09:16;;;;;;;14.80;5.15;;;;;;;;;;4970701;28;20266;-59
2024/01/12 07:11:43;;;;;;;11.52;4.75;;;;;;;;;;4980263;28;20125;-59
2024/01/12 07:14:14;;;;;;;18.10;4.88;;;;;;;;;;4964617;28;20078;-60
2024/01/12 07:16:41;;;;;;;11.90;4.72;;;;;;;;;;4970511;28;20054;-59
2024/01/12 07:19:08;;;;;;;12.85;4.82;;;;;;;;;;4974189;28;20050;-60
2024/01/12 07:21:34;;;;;;;9.90;4.45;;;;;;;;;;4970076;28;20096;-60
2024/01/12 07:24:01;;;;;;;10.07;4.57;;;;;;;;;;4960189;28;20061;-59
2024/01/12 07:26:28;;;;;;;13.50;4.30;;;;;;;;;;4982382;28;20066;-59
2024/01/12 07:28:55;;;;;;;15.93;4.65;;;;;;;;;;4974299;28;20170;-60
2024/01/12 07:31:23;;;;;;;17.63;4.65;;;;;;;;;;4979054;28;20154;-60
2024/01/12 07:33:50;;;;;;;11.23;3.97;;;;;;;;;;4979745;28;20089;-60
2024/01/12 07:36:17;;;;;;;12.02;4.28;;;;;;;;;;4986573;28;20047;-60
2024/01/12 07:38:43;;;;;;;10.32;3.95;;;;;;;;;;4975516;28;20069;-60
2024/01/12 07:41:10;;;;;;;15.40;3.92;;;;;;;;;;5000470;28;20078;-60
2024/01/12 07:43:37;;;;;;;7.88;3.35;;;;;;;;;;4973944;28;20153;-59
2024/01/12 07:46:04;;;;;;;12.43;3.88;;;;;;;;;;4977398;28;20141;-60
2024/01/12 07:48:32;;;;;;;13.93;4.35;;;;;;;;;;4982674;28;20130;-60
2024/01/12 07:51:01;;;;;;;12.93;4.30;;;;;;;;;;4983490;28;20327;-60
2024/01/12 07:53:29;;;;;;;10.70;3.80;;;;;;;;;;4979545;28;20057;-60
2024/01/12 07:55:55;;;;;;;13.30;4.30;;;;;;;;;;4995185;28;20067;-60
2024/01/12 07:58:22;;;;;;;9.32;4.15;;;;;;;;;;5002498;28;20053;-60
2024/01/12 08:00:49;;;;;;;12.15;3.97;;;;;;;;;;5006632;28;20121;-60
2024/01/12 08:03:15;;;;;;;9.48;3.88;;;;;;;;;;4999793;28;20050;-60
2024/01/12 08:05:48;;;;;;;12.02;3.30;;;;;;;;;;4957751;28;20094;-60
2024/01/12 08:08:16;;;;;;;11.50;3.50;;;;;;;;;;4975374;28;20154;-60
2024/01/12 08:10:43;;;;;;;8.77;3.57;;;;;;;;;;4981946;28;20052;-60
2024/01/12 08:13:10;;;;;;;16.25;3.85;;;;;;;;;;4974833;28;20050;-59
2024/01/12 08:15:36;;;;;;;13.75;4.35;;;;;;;;;;4970656;28;20054;-61
2024/01/12 08:18:06;;;;;;;14.02;4.22;;;;;;;;;;4973804;28;20125;-60
2024/01/12 08:20:33;;;;;;;8.18;3.53;;;;;;;;;;4955540;28;20054;-60
2024/01/12 08:23:01;;;;;;;17.02;3.75;;;;;;;;;;4972783;28;20060;-60
2024/01/12 08:25:28;;;;;;;11.10;3.60;;;;;;;;;;4975036;28;20062;-60
2024/01/12 08:27:56;;;;;;;11.02;4.10;;;;;;;;;;4981190;28;20113;-60
2024/01/12 08:30:23;;;;;;;10.57;3.65;;;;;;;;;;4987379;28;20050;-60
2024/01/12 08:32:49;;;;;;;10.77;3.33;;;;;;;;;;4970530;28;20078;-60
2024/01/12 08:35:17;;;;;;;10.00;3.25;;;;;;;;;;4974134;28;20050;-59
2024/01/12 08:37:44;;;;;;;11.27;3.42;;;;;;;;;;4965406;28;20050;-60
2024/01/12 08:40:12;;;;;;;13.27;3.72;;;;;;;;;;4978452;28;20050;-60
2024/01/12 08:42:39;;;;;;;7.00;3.03;;;;;;;;;;4993620;28;20136;-60
2024/01/12 08:45:07;;;;;;;10.05;3.13;;;;;;;;;;4996139;28;20129;-60
2024/01/12 08:47:34;;;;;;;10.07;3.17;;;;;;;;;;4998593;28;20053;-61
2024/01/12 08:50:01;;;;;;;10.32;3.63;;;;;;;;;;5000079;28;20042;-61
2024/01/12 08:52:29;;;;;;;10.52;3.53;;;;;;;;;;4994783;28;20046;-60
2024/01/12 08:54:55;;;;;;;5.70;2.63;;;;;;;;;;5005087;28;20081;-60
2024/01/12 08:57:23;;;;;;;13.50;2.85;;;;;;;;;;4991282;28;20143;-60
2024/01/12 08:59:50;;;;;;;9.60;3.00;;;;;;;;;;5019685;28;20056;-61
2024/01/12 09:02:17;;;;;;;9.77;3.30;;;;;;;;;;4996942;28;20053;-60
2024/01/12 09:04:43;;;;;;;6.55;2.85;;;;;;;;;;5003122;28;20136;-60
2024/01/12 09:07:13;;;;;;;10.85;3.60;;;;;;;;;;4989219;28;20050;-61
2024/01/12 09:09:40;;;;;;;7.57;2.75;;;;;;;;;;4987360;28;20167;-61
2024/01/12 09:12:08;;;;;;;9.00;2.72;;;;;;;;;;4981911;28;20049;-60
2024/01/12 09:14:36;;;;;;;7.35;2.60;;;;;;;;;;4992715;28;20065;-60
2024/01/12 09:17:02;;;;;;;7.60;2.42;;;;;;;;;;5004221;28;20085;-60
2024/01/12 09:19:29;;;;;;;10.77;2.92;;;;;;;;;;4992049;28;20042;-60
2024/01/12 09:21:55;;;;;;;7.82;2.70;;;;;;;;;;4981959;28;20050;-61
2024/01/12 09:24:22;;;;;;;5.60;2.63;;;;;;;;;;4979871;28;20086;-61
2024/01/12 09:26:49;;;;;;;10.57;2.50;;;;;;;;;;4981448;28;20085;-60
2024/01/12 09:29:15;;;;;;;8.43;3.22;;;;;;;;;;4973391;28;20046;-60
2024/01/12 09:31:43;;;;;;;6.55;2.80;;;;;;;;;;4963603;28;20055;-61
2024/01/12 09:34:10;;;;;;;9.35;2.75;;;;;;;;;;4965055;28;20069;-61
2024/01/12 09:36:37;;;;;;;10.00;2.85;;;;;;;;;;4979972;28;20070;-61
2024/01/12 09:39:04;;;;;;;6.70;2.30;;;;;;;;;;4976462;28;20050;-61
2024/01/12 09:41:39;;;;;;;9.25;2.88;;;;;;;;;;4968534;28;20050;-61
2024/01/12 09:44:08;;;;;;;9.02;3.10;;;;;;;;;;4994400;28;20148;-60
2024/01/12 09:46:41;;;;;;;18.10;4.63;;;;;;;;;;4987162;28;20118;-60
2024/01/12 09:49:09;;;;;;;11.98;3.97;;;;;;;;;;4970740;28;20129;-60
2024/01/12 09:51:36;;;;;;;8.60;2.50;;;;;;;;;;4977901;28;20085;-60
2024/01/12 09:54:02;;;;;;;9.07;2.47;;;;;;;;;;4981215;28;20054;-60
2024/01/12 09:56:29;;;;;;;11.60;2.70;;;;;;;;;;4987602;28;20046;-60
2024/01/12 09:58:56;;;;;;;8.38;2.55;;;;;;;;;;4978672;28;20048;-61
2024/01/12 10:01:23;;;;;;;7.47;2.67;;;;;;;;;;4972746;28;20089;-60
2024/01/12 10:03:51;;;;;;;8.13;2.78;;;;;;;;;;4978086;28;20058;-60
2024/01/12 10:06:19;;;;;;;6.75;2.50;;;;;;;;;;4976621;28;20058;-60
2024/01/12 10:08:48;;;;;;;6.68;2.20;;;;;;;;;;4978189;28;20125;-60
2024/01/12 10:11:17;;;;;;;;;;;;;;;;;;4961897;28;20086;-61
2024/01/12 10:13:44;;;;;;;4.93;1.85;;;;;;;;;;4980875;28;19926;-60
2024/01/12 10:16:12;;;;;;;8.75;2.22;;;;;;;;;;4978990;28;20109;-60
2024/01/12 10:18:38;;;;;;;7.75;2.03;;;;;;;;;;4975476;28;20141;-60
2024/01/12 10:21:05;;;;;;;11.30;2.67;;;;;;;;;;4976322;28;20104;-60
2024/01/12 10:23:34;;;;;;;5.03;2.22;;;;;;;;;;4991532;28;20049;-59
2024/01/12 10:26:04;;;;;;;10.63;2.38;;;;;;;;;;4996304;28;20074;-60
2024/01/12 10:28:31;;;;;;;7.60;2.35;;;;;;;;;;4995383;28;20235;-59
2024/01/12 10:30:58;;;;;;;4.70;1.88;;;;;;;;;;4989567;28;20054;-60
2024/01/12 10:33:25;;;;;;;10.13;2.45;;;;;;;;;;4969519;28;20132;-60
2024/01/12 10:36:05;;;;;;;8.07;2.47;;;;;;;;;;4987255;28;20057;-60
2024/01/12 10:38:36;;;;;;;8.40;2.65;;;;;;;;;;4977315;28;20098;-60
2024/01/12 10:41:06;;;;;;;5.13;2.00;;;;;;;;;;4953373;28;20058;-59
2024/01/12 10:43:37;;;;;;;8.52;2.17;;;;;;;;;;4971471;28;20338;-60
2024/01/12 10:46:11;;;;;;;13.95;4.72;;;;;;;;;;4973694;28;20055;-60
2024/01/12 10:48:46;;;;;;;10.90;2.78;;;;;;;;;;4978804;28;20105;-60
2024/01/12 10:51:14;;;;;;;8.57;2.42;;;;;;;;;;4954342;28;20541;-60
2024/01/12 10:53:47;;;;;;;;;;;;;;;;;;4991316;28;20074;-59
2024/01/12 10:56:13;;;;;;;8.98;2.55;;;;;;;;;;4991220;28;19937;-59
2024/01/12 10:58:44;;;;;;;8.95;2.45;;;;;;;;;;4975353;28;20042;-59
2024/01/12 11:01:11;;;;;;;5.55;2.10;;;;;;;;;;4966715;28;20078;-60
2024/01/12 11:03:39;;;;;;;8.13;2.70;;;;;;;;;;4980595;28;20050;-59
2024/01/12 11:06:07;;;;;;;9.90;2.50;;;;;;;;;;4979572;28;20085;-59
2024/01/12 11:08:34;;;;;;;9.45;2.55;;;;;;;;;;4976857;28;20053;-59
2024/01/12 11:11:06;;;;;;;6.22;2.13;;;;;;;;;;4976263;28;20149;-59
2024/01/12 11:13:33;;;;;;;6.88;2.38;;;;;;;;;;4970889;28;20047;-59
2024/01/12 11:16:01;;;;;;;6.85;2.40;;;;;;;;;;4974250;28;20050;-59
2024/01/12 11:18:28;;;;;;;10.98;2.70;;;;;;;;;;4978296;28;20061;-59
2024/01/12 11:21:01;;;;;;;9.15;2.40;;;;;;;;;;4963005;28;20050;-59
2024/01/12 11:23:28;;;;;;;9.70;2.72;;;;;;;;;;4986574;28;20175;-59
2024/01/12 11:25:55;;;;;;;6.93;2.63;;;;;;;;;;4975688;28;20112;-59
2024/01/12 11:28:23;;;;;;;9.23;2.28;;;;;;;;;;4973411;28;20267;-59
2024/01/12 11:30:51;;;;;;;13.52;5.00;;;;;;;;;;4986933;28;20141;-59
2024/01/12 11:33:17;;;;;;;12.95;3.53;;;;;;;;;;4970055;28;20167;-60
2024/01/12 11:35:46;;;;;;;18.15;6.38;;;;;;;;;;4977433;28;20065;-59
2024/01/12 11:38:13;;;;;;;16.27;6.95;;;;;;;;;;4979540;28;20085;-60
2024/01/12 11:40:44;;;;;;;18.15;6.40;;;;;;;;;;4967103;28;20046;-60
2024/01/12 11:43:17;;;;;;;12.75;4.78;;;;;;;;;;5007001;28;20070;-60
2024/01/12 11:45:45;;;;;;;9.55;3.33;;;;;;;;;;4987735;28;20077;-59
2024/01/12 11:48:14;;;;;;;11.88;3.03;;;;;;;;;;4991640;28;20050;-60
2024/01/12 11:50:42;;;;;;;5.75;2.50;;;;;;;;;;4996917;28;20084;-59
2024/01/12 11:53:09;;;;;;;5.73;1.87;;;;;;;;;;4993220;28;20053;-59
2024/01/12 11:55:36;;;;;;;8.27;2.65;;;;;;;;;;4999651;28;20324;-60
2024/01/12 11:58:04;;;;;;;5.82;2.55;;;;;;;;;;4991132;28;20170;-60
2024/01/12 12:00:31;;;;;;;7.72;3.28;;;;;;;;;;4998724;28;20077;-60
2024/01/12 12:02:59;;;;;;;12.50;3.65;;;;;;;;;;4979496;28;20042;-60
2024/01/12 12:05:28;;;;;;;13.23;5.13;;;;;;;;;;5009517;28;20054;-62
2024/01/12 12:07:55;;;;;;;22.15;6.93;;;;;;;;;;4995895;28;20042;-60
2024/01/12 12:10:21;;;;;;;12.93;5.18;;;;;;;;;;4998557;28;20061;-60
2024/01/12 12:12:48;;;;;;;10.98;3.70;;;;;;;;;;4988885;28;20116;-60
2024/01/12 12:15:15;;;;;;;12.38;3.17;;;;;;;;;;4985700;28;20046;-60
2024/01/12 12:17:45;;;;;;;11.55;2.70;;;;;;;;;;5000865;28;20125;-60
2024/01/12 12:20:14;;;;;;;4.90;2.22;;;;;;;;;;5002324;28;20069;-59
2024/01/12 12:22:41;;;;;;;7.95;2.92;;;;;;;;;;4982442;28;20046;-60
2024/01/12 12:25:09;;;;;;;8.30;2.58;;;;;;;;;;4988108;28;20133;-60
2024/01/12 12:27:36;;;;;;;9.48;2.33;;;;;;;;;;5014162;28;22210;-60
2024/01/12 12:30:06;;;;;;;10.43;2.65;;;;;;;;;;4997321;28;20046;-61
2024/01/12 12:32:33;;;;;;;5.45;2.60;;;;;;;;;;4964854;28;20049;-60
2024/01/12 12:35:00;;;;;;;9.27;2.80;;;;;;;;;;4976385;28;20046;-59
2024/01/12 12:37:28;;;;;;;11.27;2.30;;;;;;;;;;4979450;28;20056;-59
2024/01/12 12:39:55;;;;;;;9.07;2.50;;;;;;;;;;4980622;28;20172;-60
2024/01/12 12:42:22;;;;;;;6.75;2.40;;;;;;;;;;4944291;28;20048;-60
2024/01/12 12:44:51;;;;;;;8.85;3.05;;;;;;;;;;4980319;28;20062;-59
2024/01/12 12:47:17;;;;;;;8.02;2.30;;;;;;;;;;4975844;28;20096;-60
2024/01/12 12:49:44;;;;;;;7.05;2.42;;;;;;;;;;4984205;28;20062;-60
2024/01/12 12:52:11;;;;;;;10.60;2.25;;;;;;;;;;4974480;28;20043;-60
2024/01/12 12:54:39;;;;;;;12.75;3.03;;;;;;;;;;4979944;28;20054;-60
2024/01/12 12:57:06;;;;;;;33.55;10.73;;;;;;;;;;4976357;28;20081;-60
2024/01/12 12:59:35;;;;;;;13.40;4.28;;;;;;;;;;4979487;28;21665;-60
2024/01/12 13:02:02;;;;;;;11.30;2.75;;;;;;;;;;4971370;28;20085;-60
2024/01/12 13:04:28;;;;;;;9.43;2.65;;;;;;;;;;4973425;28;20105;-60
2024/01/12 13:06:55;;;;;;;8.48;3.65;;;;;;;;;;4975303;28;20051;-60
2024/01/12 13:09:23;;;;;;;9.57;2.72;;;;;;;;;;4974903;28;20877;-62
2024/01/12 13:11:51;;;;;;;7.28;1.92;;;;;;;;;;4986876;28;20111;-60
2024/01/12 13:14:18;;;;;;;4.80;1.73;;;;;;;;;;4987072;28;20116;-61
2024/01/12 13:16:44;;;;;;;10.93;2.08;;;;;;;;;;4992129;28;20046;-60
2024/01/12 13:19:12;;;;;;;10.10;1.80;;;;;;;;;;4977676;28;20042;-60
2024/01/12 13:21:38;;;;;;;4.53;1.40;;;;;;;;;;4976956;28;20152;-60
2024/01/12 13:24:08;;;;;;;3.85;1.23;;;;;;;;;;4983373;28;20129;-61
2024/01/12 13:26:35;;;;;;;7.43;1.55;;;;;;;;;;4984280;28;20057;-60
2024/01/12 13:29:04;;;;;;;7.65;2.05;;;;;;;;;;4986959;28;20062;-60
2024/01/12 13:31:31;;;;;;;7.68;1.13;;;;;;;;;;4966108;28;21524;-60
2024/01/12 13:33:58;;;;;;;7.78;1.42;;;;;;;;;;4990171;28;20071;-61
2024/01/12 13:36:25;;;;;;;8.35;1.17;;;;;;;;;;4983755;28;20140;-60
2024/01/12 13:38:53;;;;;;;11.70;2.03;;;;;;;;;;4979167;28;20046;-61
2024/01/12 13:41:21;;;;;;;8.65;1.50;;;;;;;;;;4962826;28;20058;-62
2024/01/12 13:43:47;;;;;;;3.92;1.20;;;;;;;;;;4983157;28;20120;-61
2024/01/12 13:46:16;;;;;;;5.35;1.05;;;;;;;;;;4979111;28;20062;-61
2024/01/12 13:48:42;;;;;;;6.85;0.90;;;;;;;;;;4981387;28;20086;-61
2024/01/12 13:51:11;;;;;;;4.68;0.98;;;;;;;;;;4990863;28;20116;-61
2024/01/12 13:53:38;;;;;;;1.15;0.70;;;;;;;;;;4981817;28;20073;-61
2024/01/12 13:56:06;;;;;;;4.15;1.00;;;;;;;;;;4981761;28;20140;-61
2024/01/12 13:58:33;;;;;;;5.82;1.15;;;;;;;;;;4978799;28;20046;-61
2024/01/12 14:00:59;;;;;;;2.67;0.95;;;;;;;;;;4975330;28;20058;-61
2024/01/12 14:03:28;;;;;;;6.00;0.98;;;;;;;;;;4973216;28;20073;-61
2024/01/12 14:05:56;;;;;;;5.55;1.05;;;;;;;;;;4964502;28;20057;-61
2024/01/12 14:08:24;;;;;;;4.13;1.07;;;;;;;;;;4963144;28;20063;-62
2024/01/12 14:10:51;;;;;;;8.73;2.20;;;;;;;;;;4974427;28;20049;-61
2024/01/12 14:13:18;;;;;;;9.93;2.25;;;;;;;;;;4971861;28;20182;-60
2024/01/12 14:15:45;;;;;;;6.47;1.38;;;;;;;;;;4979571;28;20094;-61
2024/01/12 14:18:11;;;;;;;5.18;1.40;;;;;;;;;;4981008;28;20064;-60
2024/01/12 14:20:40;;;;;;;5.25;1.20;;;;;;;;;;4980158;28;20090;-62
2024/01/12 14:23:09;;;;;;;3.35;1.10;;;;;;;;;;4999558;28;20046;-61
2024/01/12 14:25:39;;;;;;;4.95;1.10;;;;;;;;;;4993239;28;20181;-61
2024/01/12 14:28:06;;;;;;;2.47;1.35;;;;;;;;;;5000170;28;20050;-61
2024/01/12 14:30:33;;;;;;;2.95;0.60;;;;;;;;;;4991296;28;20069;-61
2024/01/12 14:33:02;;;;;;;12.35;2.30;;;;;;;;;;4984825;28;20046;-60
2024/01/12 14:35:29;;;;;;;4.30;1.52;;;;;;;;;;4984660;28;20049;-61
2024/01/12 14:37:57;;;;;;;6.50;1.38;;;;;;;;;;4999380;28;20090;-60